Time;durP1;ratioP1;P1;durP2;ratioP2;P2;SDS_P1;SDS_P2;PMS_P1;PMS_P2;Temp;Humidity;BMP_temperature;BMP_pressure;BME280_temperature;BME280_humidity;BME280_pressure;Samples;Min_cycle;Max_cycle;Signal;HPM_P1;HPM_P2
2022/04/24 00:00:42;;;;;;;4.50;3.15;;;12.20;99.90;;;;;;5029375;28;20073;-59
2022/04/24 00:03:09;;;;;;;5.50;3.42;;;12.10;99.90;;;;;;5020136;28;20564;-57
2022/04/24 00:05:36;;;;;;;5.28;3.70;;;12.10;99.90;;;;;;5024810;28;20069;-57
2022/04/24 00:08:03;;;;;;;5.03;3.58;;;12.10;99.90;;;;;;5022259;28;20072;-58
2022/04/24 00:10:30;;;;;;;7.35;4.03;;;12.10;99.90;;;;;;5013277;28;20069;-57
2022/04/24 00:12:56;;;;;;;5.13;3.42;;;12.00;99.90;;;;;;5017754;28;20201;-58
2022/04/24 00:15:23;;;;;;;5.15;3.50;;;12.00;99.90;;;;;;5031521;28;20077;-58
2022/04/24 00:17:50;;;;;;;4.95;3.08;;;12.00;99.90;;;;;;5029873;28;20137;-58
2022/04/24 00:20:17;;;;;;;4.47;3.28;;;12.00;99.90;;;;;;5023386;28;20069;-58
2022/04/24 00:22:44;;;;;;;4.05;2.88;;;12.00;99.90;;;;;;5031000;28;20040;-57
2022/04/24 00:25:10;;;;;;;4.30;2.78;;;12.00;99.90;;;;;;5039127;28;20047;-58
2022/04/24 00:27:37;;;;;;;4.22;2.20;;;12.00;99.90;;;;;;5021968;28;20054;-59
2022/04/24 00:30:04;;;;;;;4.63;2.42;;;12.00;99.90;;;;;;5025992;28;20075;-55
2022/04/24 00:32:31;;;;;;;4.03;3.20;;;11.90;99.90;;;;;;5027261;28;20083;-58
2022/04/24 00:34:58;;;;;;;4.32;3.25;;;11.90;99.90;;;;;;5018975;28;20077;-56
2022/04/24 00:37:25;;;;;;;5.32;2.55;;;11.90;99.90;;;;;;5015660;28;20116;-58
2022/04/24 00:39:51;;;;;;;3.35;2.58;;;12.00;99.90;;;;;;5029347;28;20156;-58
2022/04/24 00:42:18;;;;;;;3.35;2.42;;;12.00;99.90;;;;;;5024391;28;20704;-58
2022/04/24 00:44:45;;;;;;;4.63;3.10;;;12.00;99.90;;;;;;5036620;28;20068;-57
2022/04/24 00:47:19;;;;;;;3.45;2.20;;;11.90;99.90;;;;;;5019330;28;20084;-58
2022/04/24 00:49:46;;;;;;;2.80;2.33;;;11.90;99.90;;;;;;5026012;28;20087;-58
2022/04/24 00:52:13;;;;;;;4.35;2.47;;;12.00;99.90;;;;;;5042961;28;20128;-58
2022/04/24 00:54:40;;;;;;;3.55;2.45;;;12.00;99.90;;;;;;5027846;28;20557;-58
2022/04/24 00:57:11;;;;;;;3.38;2.60;;;11.90;99.90;;;;;;5024483;28;20484;-58
2022/04/24 00:59:37;;;;;;;6.85;2.65;;;11.90;99.90;;;;;;5023057;28;20505;-56
2022/04/24 01:02:05;;;;;;;5.55;3.60;;;11.90;99.90;;;;;;5021889;28;20056;-58
2022/04/24 01:04:35;;;;;;;5.72;3.08;;;11.80;99.90;;;;;;5022878;28;20051;-59
2022/04/24 01:07:03;;;;;;;4.90;3.38;;;11.80;99.90;;;;;;5030585;28;20045;-58
2022/04/24 01:09:31;;;;;;;4.47;3.15;;;11.80;99.90;;;;;;5042659;28;20091;-58
2022/04/24 01:11:58;;;;;;;5.43;3.20;;;11.70;99.90;;;;;;5042799;28;20129;-58
2022/04/24 01:14:25;;;;;;;5.22;3.22;;;11.70;99.90;;;;;;5041807;28;20087;-58
2022/04/24 01:16:52;;;;;;;4.95;3.35;;;11.60;99.90;;;;;;5025594;28;20128;-58
2022/04/24 01:19:19;;;;;;;6.60;3.75;;;11.60;99.90;;;;;;5002373;28;20088;-58
2022/04/24 01:21:48;;;;;;;5.43;3.67;;;11.50;99.90;;;;;;5023908;28;20056;-58
2022/04/24 01:24:16;;;;;;;6.20;4.25;;;11.50;99.90;;;;;;5023408;28;20091;-58
2022/04/24 01:26:43;;;;;;;5.65;3.00;;;11.50;99.90;;;;;;5023453;28;20156;-58
2022/04/24 01:29:11;;;;;;;4.80;3.10;;;11.40;99.90;;;;;;5022228;28;20049;-58
2022/04/24 01:31:38;;;;;;;3.55;2.80;;;11.40;99.90;;;;;;5020159;28;20056;-58
2022/04/24 01:34:05;;;;;;;4.25;3.10;;;11.30;99.90;;;;;;5020734;28;20173;-58
2022/04/24 01:36:32;;;;;;;5.43;2.80;;;11.20;99.90;;;;;;5024653;28;20529;-58
2022/04/24 01:38:59;;;;;;;3.53;2.97;;;11.20;99.90;;;;;;5032623;28;20186;-58
2022/04/24 01:41:26;;;;;;;5.45;3.28;;;11.10;99.90;;;;;;5044376;28;20044;-58
2022/04/24 01:43:53;;;;;;;4.13;2.40;;;11.00;99.90;;;;;;5023195;28;20080;-58
2022/04/24 01:46:20;;;;;;;4.18;2.97;;;11.00;99.90;;;;;;5023138;28;20611;-58
2022/04/24 01:48:47;;;;;;;3.80;2.90;;;11.00;99.90;;;;;;5024116;28;20079;-58
2022/04/24 01:51:14;;;;;;;3.70;2.60;;;10.90;99.90;;;;;;5027735;28;20789;-58
2022/04/24 01:53:42;;;;;;;3.65;2.50;;;10.80;99.90;;;;;;5023793;28;20045;-58
2022/04/24 01:56:09;;;;;;;4.57;3.20;;;10.70;99.90;;;;;;5024328;28;20155;-57
2022/04/24 01:58:36;;;;;;;4.00;2.90;;;10.60;99.90;;;;;;5023944;28;20158;-58
2022/04/24 02:01:04;;;;;;;5.00;2.97;;;10.60;99.90;;;;;;5022719;28;20107;-58
2022/04/24 02:03:30;;;;;;;3.78;2.72;;;10.50;99.90;;;;;;5023045;28;20049;-56
2022/04/24 02:05:58;;;;;;;3.50;2.30;;;10.50;99.90;;;;;;5021295;28;20062;-57
2022/04/24 02:08:24;;;;;;;3.17;2.88;;;10.40;99.90;;;;;;5025014;28;20081;-58
2022/04/24 02:10:51;;;;;;;3.25;2.30;;;10.40;99.90;;;;;;5023424;28;20120;-57
2022/04/24 02:13:18;;;;;;;2.65;2.15;;;10.40;99.90;;;;;;5024082;28;20110;-57
2022/04/24 02:15:49;;;;;;;3.08;2.42;;;10.30;99.90;;;;;;5022701;28;20140;-58
2022/04/24 02:18:16;;;;;;;3.63;2.13;;;10.20;99.90;;;;;;5024403;28;20128;-58
2022/04/24 02:20:43;;;;;;;5.05;3.45;;;10.20;99.90;;;;;;5024410;28;20607;-58
2022/04/24 02:23:09;;;;;;;3.97;2.63;;;10.10;99.90;;;;;;5022975;28;20353;-57
2022/04/24 02:25:36;;;;;;;4.13;2.72;;;10.10;99.90;;;;;;5023630;28;20776;-58
2022/04/24 02:28:03;;;;;;;3.03;2.28;;;10.10;99.90;;;;;;5024619;28;20129;-58
2022/04/24 02:30:30;;;;;;;3.67;2.25;;;10.00;99.90;;;;;;5022639;28;20084;-58
2022/04/24 02:32:58;;;;;;;3.03;2.20;;;10.00;99.90;;;;;;5019827;28;20065;-58
2022/04/24 02:35:25;;;;;;;2.50;2.10;;;10.00;99.90;;;;;;5024194;28;20160;-58
2022/04/24 02:37:52;;;;;;;3.33;2.55;;;9.90;99.90;;;;;;5022985;28;20133;-59
2022/04/24 02:40:21;;;;;;;3.72;2.40;;;9.90;99.90;;;;;;5012700;28;20088;-58
2022/04/24 02:42:52;;;;;;;3.40;2.58;;;9.90;99.90;;;;;;5025981;28;20493;-58
2022/04/24 02:45:19;;;;;;;2.92;1.98;;;9.90;99.90;;;;;;5033861;28;20287;-58
2022/04/24 02:47:46;;;;;;;5.18;2.38;;;9.80;99.90;;;;;;5019902;28;20077;-57
2022/04/24 02:50:13;;;;;;;3.40;2.30;;;9.80;99.90;;;;;;5041511;28;20118;-57
2022/04/24 02:52:53;;;;;;;4.50;2.55;;;9.80;99.90;;;;;;5018988;28;20059;-57
2022/04/24 02:55:20;;;;;;;3.95;2.20;;;9.70;99.90;;;;;;5019213;28;20152;-57
2022/04/24 02:57:47;;;;;;;3.63;2.05;;;9.70;99.90;;;;;;5023814;28;20147;-57
2022/04/24 03:00:19;;;;;;;3.85;2.25;;;9.70;99.90;;;;;;5026933;28;20522;-58
2022/04/24 03:02:46;;;;;;;3.20;1.63;;;9.70;99.90;;;;;;5041190;28;20175;-57
2022/04/24 03:05:15;;;;;;;2.17;1.50;;;9.70;99.90;;;;;;5023428;28;20077;-57
2022/04/24 03:07:42;;;;;;;2.90;2.03;;;9.60;99.90;;;;;;5022063;28;20088;-56
2022/04/24 03:10:09;;;;;;;3.00;1.65;;;9.60;99.90;;;;;;5023289;28;20132;-57
2022/04/24 03:12:36;;;;;;;3.78;2.20;;;9.50;99.90;;;;;;5023801;28;20129;-57
2022/04/24 03:15:06;;;;;;;2.40;1.80;;;9.50;99.90;;;;;;5022544;28;20045;-58
2022/04/24 03:17:33;;;;;;;3.20;1.95;;;9.50;99.90;;;;;;5022009;28;20116;-58
2022/04/24 03:20:05;;;;;;;4.15;2.38;;;9.50;99.90;;;;;;5021863;28;20477;-57
2022/04/24 03:22:33;;;;;;;2.63;1.88;;;9.50;99.90;;;;;;5027094;28;20403;-57
2022/04/24 03:25:05;;;;;;;2.22;1.70;;;9.50;99.90;;;;;;5025194;28;20136;-57
2022/04/24 03:27:31;;;;;;;3.63;1.95;;;9.50;99.90;;;;;;5042483;28;20124;-58
2022/04/24 03:29:58;;;;;;;2.72;2.08;;;9.40;99.90;;;;;;5037257;28;20042;-57
2022/04/24 03:32:25;;;;;;;2.83;1.98;;;9.40;99.90;;;;;;5027009;28;20725;-58
2022/04/24 03:34:52;;;;;;;3.10;2.15;;;9.40;99.90;;;;;;5025209;28;20445;-57
2022/04/24 03:37:19;;;;;;;3.58;2.00;;;9.30;99.90;;;;;;5027490;28;20120;-57
2022/04/24 03:39:46;;;;;;;2.60;2.13;;;9.30;99.90;;;;;;5027043;28;20146;-57
2022/04/24 03:42:12;;;;;;;2.80;1.85;;;9.20;99.90;;;;;;5032035;28;20099;-57
2022/04/24 03:44:39;;;;;;;3.08;2.10;;;9.20;99.90;;;;;;5044423;28;20451;-58
2022/04/24 03:47:07;;;;;;;3.90;1.73;;;9.10;99.90;;;;;;5022740;28;20449;-58
2022/04/24 03:49:34;;;;;;;2.25;1.92;;;9.10;99.90;;;;;;5033053;28;20057;-58
2022/04/24 03:52:00;;;;;;;2.85;2.00;;;9.10;99.90;;;;;;5027145;28;20046;-58
2022/04/24 03:54:27;;;;;;;2.47;2.03;;;9.10;99.90;;;;;;5028426;28;20111;-58
2022/04/24 03:56:54;;;;;;;3.10;2.50;;;9.10;99.90;;;;;;5027176;28;20501;-58
2022/04/24 03:59:21;;;;;;;2.58;1.83;;;9.10;99.90;;;;;;5026045;28;20088;-57
2022/04/24 04:01:48;;;;;;;2.92;1.95;;;9.00;99.90;;;;;;5026408;28;20160;-58
2022/04/24 04:04:15;;;;;;;2.30;1.60;;;9.00;99.90;;;;;;5026188;28;20041;-58
2022/04/24 04:06:42;;;;;;;2.97;2.05;;;9.00;99.90;;;;;;5026759;28;20088;-57
2022/04/24 04:09:10;;;;;;;3.47;2.35;;;9.00;99.90;;;;;;5022431;28;20076;-57
2022/04/24 04:11:37;;;;;;;3.55;2.10;;;9.00;99.90;;;;;;5026725;28;20073;-57
2022/04/24 04:14:03;;;;;;;2.78;1.77;;;8.90;99.90;;;;;;5025613;28;20143;-58
2022/04/24 04:16:30;;;;;;;3.42;2.45;;;8.90;99.90;;;;;;5026226;28;20161;-58
2022/04/24 04:18:57;;;;;;;3.38;2.08;;;8.90;99.90;;;;;;5020941;28;20440;-58
2022/04/24 04:21:24;;;;;;;3.28;2.13;;;8.80;99.90;;;;;;5026641;28;20152;-58
2022/04/24 04:23:50;;;;;;;2.78;2.17;;;8.80;99.90;;;;;;5026436;28;20445;-58
2022/04/24 04:26:17;;;;;;;3.97;2.60;;;8.70;99.90;;;;;;5026476;28;20160;-58
2022/04/24 04:28:44;;;;;;;3.75;2.35;;;8.60;99.90;;;;;;5025751;28;20543;-57
2022/04/24 04:31:12;;;;;;;3.30;2.17;;;8.60;99.90;;;;;;5026151;28;20041;-58
2022/04/24 04:33:39;;;;;;;3.50;2.22;;;8.60;99.90;;;;;;5028759;28;20134;-58
2022/04/24 04:36:06;;;;;;;2.78;2.38;;;8.60;99.90;;;;;;5040135;28;20129;-58
2022/04/24 04:38:33;;;;;;;4.22;2.70;;;8.60;99.90;;;;;;5036177;28;20196;-55
2022/04/24 04:40:59;;;;;;;4.30;2.63;;;8.60;99.90;;;;;;5045055;28;20118;-57
2022/04/24 04:43:26;;;;;;;3.20;2.35;;;8.50;99.90;;;;;;5028746;28;20053;-58
2022/04/24 04:45:53;;;;;;;3.92;2.30;;;8.50;99.90;;;;;;5021270;28;20052;-58
2022/04/24 04:48:20;;;;;;;2.95;2.17;;;8.50;99.90;;;;;;5024931;28;20445;-57
2022/04/24 04:50:47;;;;;;;2.95;2.15;;;8.50;99.90;;;;;;5035467;28;20156;-57
2022/04/24 04:53:13;;;;;;;3.10;2.40;;;8.50;99.90;;;;;;5025392;28;20051;-59
2022/04/24 04:55:40;;;;;;;3.15;2.30;;;8.50;99.90;;;;;;5023997;28;20172;-59
2022/04/24 04:58:09;;;;;;;4.10;2.47;;;8.50;99.90;;;;;;5024755;28;20046;-59
2022/04/24 05:00:35;;;;;;;2.97;2.60;;;8.40;99.90;;;;;;5027566;28;20561;-59
2022/04/24 05:03:02;;;;;;;3.22;2.65;;;8.50;99.90;;;;;;5033403;28;20041;-61
2022/04/24 05:05:29;;;;;;;3.50;2.88;;;8.40;99.90;;;;;;5022206;28;20050;-60
2022/04/24 05:07:56;;;;;;;3.15;2.17;;;8.40;99.90;;;;;;5036779;28;20052;-60
2022/04/24 05:10:22;;;;;;;4.00;2.63;;;8.40;99.90;;;;;;5034974;28;20463;-60
2022/04/24 05:12:49;;;;;;;4.20;2.67;;;8.40;99.90;;;;;;5016896;28;20140;-63
2022/04/24 05:15:16;;;;;;;3.10;2.60;;;8.30;99.90;;;;;;5017409;28;20077;-62
2022/04/24 05:17:44;;;;;;;3.42;2.67;;;8.30;99.90;;;;;;5027238;28;20080;-60
2022/04/24 05:20:11;;;;;;;4.30;2.38;;;8.30;99.90;;;;;;5028915;28;20098;-58
2022/04/24 05:22:39;;;;;;;2.97;2.30;;;8.30;99.90;;;;;;5031764;28;20928;-59
2022/04/24 05:25:07;;;;;;;2.92;2.10;;;8.40;99.90;;;;;;5016016;28;20589;-59
2022/04/24 05:27:34;;;;;;;3.83;2.60;;;8.40;99.90;;;;;;5020524;28;20073;-59
2022/04/24 05:30:00;;;;;;;2.50;2.15;;;8.40;99.90;;;;;;5019314;28;20172;-60
2022/04/24 05:32:27;;;;;;;3.08;2.40;;;8.50;99.90;;;;;;5015296;28;20530;-59
2022/04/24 05:34:54;;;;;;;3.35;2.10;;;8.50;99.90;;;;;;5014189;28;20537;-59
2022/04/24 05:37:20;;;;;;;3.33;2.33;;;8.50;99.90;;;;;;5016134;28;20049;-60
2022/04/24 05:39:47;;;;;;;4.10;2.47;;;8.60;99.90;;;;;;5016731;28;20148;-59
2022/04/24 05:42:14;;;;;;;3.45;2.63;;;8.60;99.90;;;;;;5020278;28;20045;-59
2022/04/24 05:44:41;;;;;;;3.60;2.55;;;8.60;99.90;;;;;;5011215;28;20060;-59
2022/04/24 05:47:08;;;;;;;2.80;2.45;;;8.60;99.90;;;;;;5012758;28;20084;-60
2022/04/24 05:49:35;;;;;;;3.92;2.50;;;8.70;99.90;;;;;;5018784;28;20053;-60
2022/04/24 05:52:01;;;;;;;4.18;3.15;;;8.80;99.90;;;;;;5017951;28;20409;-60
2022/04/24 05:54:30;;;;;;;4.00;2.78;;;8.90;99.90;;;;;;5011137;28;20100;-60
2022/04/24 05:56:56;;;;;;;3.60;2.92;;;9.00;99.90;;;;;;5023340;28;20084;-59
2022/04/24 05:59:23;;;;;;;4.28;2.78;;;9.10;99.90;;;;;;5010573;28;20077;-59
2022/04/24 06:01:50;;;;;;;4.35;3.03;;;9.20;99.90;;;;;;5017986;28;20465;-59
2022/04/24 06:04:17;;;;;;;3.80;2.92;;;9.30;99.90;;;;;;5012442;28;20054;-59
2022/04/24 06:06:44;;;;;;;5.07;3.00;;;9.40;99.90;;;;;;5015837;28;20057;-59
2022/04/24 06:09:10;;;;;;;3.65;3.03;;;9.50;99.90;;;;;;5017412;28;20140;-59
2022/04/24 06:11:41;;;;;;;3.70;3.20;;;9.50;99.90;;;;;;5020660;28;20152;-58
2022/04/24 06:14:07;;;;;;;5.15;2.85;;;9.60;99.90;;;;;;5020222;28;20107;-59
2022/04/24 06:16:35;;;;;;;4.70;2.90;;;9.70;99.90;;;;;;5008104;28;20047;-60
2022/04/24 06:19:02;;;;;;;3.92;3.13;;;9.80;99.90;;;;;;5009813;28;20119;-59
2022/04/24 06:21:29;;;;;;;3.35;2.95;;;10.00;99.90;;;;;;5027209;28;20861;-58
2022/04/24 06:23:56;;;;;;;4.13;3.20;;;10.10;99.90;;;;;;5021632;28;20042;-60
2022/04/24 06:26:22;;;;;;;3.40;2.83;;;10.20;99.90;;;;;;5025571;28;20132;-60
2022/04/24 06:28:49;;;;;;;5.10;3.05;;;10.30;99.90;;;;;;5019019;28;20144;-58
2022/04/24 06:31:16;;;;;;;3.83;3.00;;;10.40;99.90;;;;;;5021841;28;20047;-58
2022/04/24 06:33:42;;;;;;;5.07;3.13;;;10.50;99.90;;;;;;5014578;28;20701;-61
2022/04/24 06:36:09;;;;;;;3.58;3.05;;;10.50;99.90;;;;;;5012793;28;20054;-60
2022/04/24 06:38:37;;;;;;;3.72;3.25;;;10.60;99.90;;;;;;4998025;28;20532;-60
2022/04/24 06:41:03;;;;;;;4.95;3.80;;;10.70;99.90;;;;;;5009171;28;20143;-58
2022/04/24 06:43:30;;;;;;;5.45;4.00;;;10.70;99.90;;;;;;5009007;28;20145;-56
2022/04/24 06:45:57;;;;;;;3.63;3.10;;;10.70;99.90;;;;;;5026101;28;20172;-58
2022/04/24 06:48:24;;;;;;;3.63;2.90;;;10.80;99.90;;;;;;5017078;28;20135;-59
2022/04/24 06:50:50;;;;;;;4.47;3.42;;;10.80;99.90;;;;;;5000619;28;20595;-60
2022/04/24 06:53:18;;;;;;;4.30;3.08;;;10.80;99.90;;;;;;5004959;28;20492;-59
2022/04/24 06:55:46;;;;;;;4.82;3.30;;;10.80;99.90;;;;;;4999908;28;20409;-60
2022/04/24 06:58:14;;;;;;;3.00;2.60;;;10.80;99.90;;;;;;5017546;28;20083;-59
2022/04/24 07:00:42;;;;;;;7.93;4.72;;;10.80;99.90;;;;;;5012633;28;20049;-59
2022/04/24 07:03:29;;;;;;;6.32;4.82;;;10.80;99.90;;;;;;5008587;28;20390;-59
2022/04/24 07:05:57;;;;;;;7.47;4.53;;;10.90;99.90;;;;;;5003551;28;20057;-60
2022/04/24 07:08:26;;;;;;;6.07;4.97;;;10.90;99.90;;;;;;5017971;28;20504;-59
2022/04/24 07:10:53;;;;;;;6.63;4.80;;;11.00;99.90;;;;;;5020016;28;20212;-60
2022/04/24 07:13:20;;;;;;;6.45;4.72;;;11.10;99.90;;;;;;5016965;28;20575;-60
2022/04/24 07:15:47;;;;;;;7.13;5.60;;;11.10;99.90;;;;;;4999796;28;20107;-60
2022/04/24 07:18:14;;;;;;;9.02;6.25;;;11.20;99.90;;;;;;5018913;28;20059;-59
2022/04/24 07:20:40;;;;;;;9.07;6.75;;;11.20;99.90;;;;;;5017107;28;20097;-59
2022/04/24 07:23:07;;;;;;;6.72;6.00;;;11.30;99.90;;;;;;5020291;28;20500;-58
2022/04/24 07:25:37;;;;;;;5.22;4.68;;;11.30;99.90;;;;;;5016961;28;20086;-60
2022/04/24 07:28:04;;;;;;;7.63;5.30;;;11.40;99.90;;;;;;4999037;28;20306;-60
2022/04/24 07:30:31;;;;;;;6.70;4.95;;;11.40;99.90;;;;;;4999235;28;20049;-60
2022/04/24 07:32:58;;;;;;;5.90;5.20;;;11.50;99.90;;;;;;5012217;28;20458;-60
2022/04/24 07:35:29;;;;;;;6.18;5.18;;;11.50;99.90;;;;;;5013542;28;20128;-60
2022/04/24 07:37:56;;;;;;;5.55;5.05;;;11.50;99.90;;;;;;5016053;28;20362;-60
2022/04/24 07:40:26;;;;;;;7.20;5.05;;;11.60;99.90;;;;;;4999873;28;20125;-59
2022/04/24 07:42:57;;;;;;;7.40;5.07;;;11.60;99.90;;;;;;5014939;28;20543;-59
2022/04/24 07:45:29;;;;;;;6.68;5.75;;;11.60;99.90;;;;;;5024234;28;20127;-58
2022/04/24 07:47:56;;;;;;;7.68;5.72;;;11.70;99.90;;;;;;5023638;28;20053;-58
2022/04/24 07:50:24;;;;;;;6.72;5.82;;;11.80;99.90;;;;;;5018746;28;20046;-59
2022/04/24 07:52:51;;;;;;;8.88;6.63;;;11.80;99.90;;;;;;5017446;28;20140;-58
2022/04/24 07:55:19;;;;;;;9.02;7.22;;;11.90;99.90;;;;;;5017096;28;20714;-58
2022/04/24 07:57:49;;;;;;;8.80;6.50;;;11.90;99.90;;;;;;5016435;28;20053;-59
2022/04/24 08:00:17;;;;;;;8.07;6.18;;;12.00;99.90;;;;;;5011511;28;20103;-59
2022/04/24 08:02:50;;;;;;;7.57;5.00;;;12.00;99.90;;;;;;5013859;28;20060;-59
2022/04/24 08:05:25;;;;;;;6.30;4.25;;;12.10;99.90;;;;;;5008921;28;20069;-59
2022/04/24 08:07:52;;;;;;;5.32;4.82;;;12.10;99.90;;;;;;5000358;28;20081;-58
2022/04/24 08:10:20;;;;;;;8.07;5.68;;;12.20;99.90;;;;;;5000981;28;20141;-59
2022/04/24 08:12:47;;;;;;;8.30;5.78;;;12.20;99.90;;;;;;5005368;28;20137;-59
2022/04/24 08:15:14;;;;;;;5.55;4.95;;;12.30;99.90;;;;;;5021127;28;20057;-59
2022/04/24 08:17:41;;;;;;;8.20;6.20;;;12.30;99.90;;;;;;5020820;28;20160;-59
2022/04/24 08:20:08;;;;;;;6.97;5.50;;;12.40;99.90;;;;;;5006653;28;20092;-58
2022/04/24 08:22:42;;;;;;;6.63;5.07;;;12.50;99.90;;;;;;5009785;28;20137;-59
2022/04/24 08:25:10;;;;;;;4.82;3.83;;;12.50;99.90;;;;;;5016305;28;20504;-59
2022/04/24 08:27:37;;;;;;;8.00;5.65;;;12.50;99.90;;;;;;5008111;28;20142;-60
2022/04/24 08:30:08;;;;;;;8.85;6.55;;;12.60;99.90;;;;;;4999566;28;20065;-59
2022/04/24 08:32:35;;;;;;;6.13;5.00;;;12.70;99.90;;;;;;5014346;28;20134;-59
2022/04/24 08:35:03;;;;;;;7.78;5.57;;;12.70;99.90;;;;;;5018686;28;20072;-59
2022/04/24 08:37:30;;;;;;;8.70;6.40;;;12.80;99.90;;;;;;5008102;28;20136;-59
2022/04/24 08:39:57;;;;;;;9.70;6.28;;;12.80;99.90;;;;;;5000434;28;20559;-59
2022/04/24 08:42:24;;;;;;;7.25;5.63;;;12.80;99.90;;;;;;5011577;28;20070;-59
2022/04/24 08:44:51;;;;;;;5.97;4.63;;;12.90;99.90;;;;;;5007416;28;20133;-59
2022/04/24 08:47:19;;;;;;;8.63;6.50;;;13.00;99.90;;;;;;5007216;28;20045;-59
2022/04/24 08:49:46;;;;;;;6.53;5.30;;;13.10;99.90;;;;;;5003171;28;20104;-60
2022/04/24 08:52:14;;;;;;;9.27;7.18;;;13.10;99.90;;;;;;5011600;28;20096;-59
2022/04/24 08:54:41;;;;;;;9.95;7.15;;;13.20;99.90;;;;;;5009849;28;20549;-60
2022/04/24 08:57:09;;;;;;;8.50;6.55;;;13.20;99.90;;;;;;5021296;28;20077;-59
2022/04/24 08:59:37;;;;;;;5.68;4.95;;;13.30;99.90;;;;;;5028016;28;20073;-60
2022/04/24 09:02:04;;;;;;;6.85;5.20;;;13.40;99.90;;;;;;5017534;28;20215;-59
2022/04/24 09:04:34;;;;;;;8.73;5.72;;;13.50;99.90;;;;;;5016569;28;20058;-58
2022/04/24 09:07:02;;;;;;;5.60;5.00;;;13.50;99.90;;;;;;5011991;28;20573;-58
2022/04/24 09:09:53;;;;;;;8.18;5.20;;;13.60;99.90;;;;;;5009553;28;20127;-58
2022/04/24 09:12:24;;;;;;;8.40;6.60;;;13.70;99.90;;;;;;5009953;28;20133;-58
2022/04/24 09:14:54;;;;;;;7.20;6.03;;;13.80;99.90;;;;;;5008044;28;20133;-58
2022/04/24 09:17:22;;;;;;;6.22;4.80;;;13.80;99.90;;;;;;5016941;28;20226;-58
2022/04/24 09:19:50;;;;;;;4.78;4.28;;;13.90;99.90;;;;;;5020713;28;20045;-58
2022/04/24 09:22:16;;;;;;;4.35;3.90;;;14.00;99.90;;;;;;5005872;28;20056;-58
2022/04/24 09:24:49;;;;;;;4.47;4.07;;;14.10;99.90;;;;;;5010064;28;20050;-58
2022/04/24 09:27:24;;;;;;;6.88;4.40;;;14.20;99.90;;;;;;5014186;28;20160;-58
2022/04/24 09:30:07;;;;;;;5.72;4.43;;;14.20;99.90;;;;;;5020630;28;20053;-58
2022/04/24 09:32:50;;;;;;;5.80;4.57;;;14.30;99.90;;;;;;5008541;28;20049;-59
2022/04/24 09:35:23;;;;;;;;;;;14.40;99.90;;;;;;5011361;28;20049;-58
2022/04/24 09:37:50;;;;;;;7.95;4.60;;;14.40;99.90;;;;;;5012319;28;19979;-58
2022/04/24 09:40:17;;;;;;;6.53;4.15;;;14.50;99.90;;;;;;5009441;28;20076;-58
2022/04/24 09:42:56;;;;;;;9.80;5.72;;;14.60;99.90;;;;;;5016608;28;20054;-58
2022/04/24 09:45:24;;;;;;;6.45;4.78;;;14.70;99.90;;;;;;5020138;28;20136;-58
2022/04/24 09:48:18;;;;;;;6.28;4.05;;;14.70;99.90;;;;;;5021416;28;20044;-58
2022/04/24 09:50:45;;;;;;;6.20;4.15;;;14.90;99.90;;;;;;5021103;28;20084;-58
2022/04/24 09:53:13;;;;;;;4.70;3.47;;;15.00;99.90;;;;;;5020791;28;20049;-58
2022/04/24 09:55:43;;;;;;;9.35;6.45;;;15.00;99.90;;;;;;5029710;28;20132;-59
2022/04/24 09:58:11;;;;;;;8.45;5.80;;;15.00;99.90;;;;;;5023428;28;20477;-58
2022/04/24 10:00:38;;;;;;;7.68;5.75;;;15.00;99.90;;;;;;5017029;28;20450;-58
2022/04/24 10:03:05;;;;;;;5.88;4.45;;;15.10;99.90;;;;;;5027146;28;20091;-58
2022/04/24 10:05:32;;;;;;;5.30;4.43;;;15.30;99.90;;;;;;4992643;28;20232;-58
2022/04/24 10:07:59;;;;;;;6.07;4.38;;;15.40;99.90;;;;;;5007067;28;20129;-58
2022/04/24 10:10:26;;;;;;;7.72;5.00;;;15.40;99.90;;;;;;5004387;28;20523;-58
2022/04/24 10:12:53;;;;;;;7.43;5.20;;;15.50;99.90;;;;;;5014644;28;20084;-58
2022/04/24 10:15:21;;;;;;;6.10;4.85;;;15.60;99.90;;;;;;5008379;28;20108;-58
2022/04/24 10:18:03;;;;;;;4.90;3.95;;;15.70;99.90;;;;;;5010050;28;20097;-58
2022/04/24 10:20:34;;;;;;;4.20;3.67;;;15.80;99.90;;;;;;5014111;28;20056;-58
2022/04/24 10:23:01;;;;;;;4.50;3.30;;;15.90;99.90;;;;;;5017386;28;20129;-58
2022/04/24 10:25:32;;;;;;;3.35;2.92;;;16.00;99.90;;;;;;5017594;28;20431;-58
2022/04/24 10:28:18;;;;;;;6.07;3.63;;;16.20;99.90;;;;;;5019511;28;20136;-58
2022/04/24 10:30:58;;;;;;;4.05;3.60;;;16.40;99.90;;;;;;5007247;28;20131;-58
2022/04/24 10:33:28;;;;;;;5.10;3.38;;;16.50;99.90;;;;;;5013830;28;20052;-59
2022/04/24 10:36:03;;;;;;;4.07;3.30;;;16.60;99.90;;;;;;5005321;28;20081;-58
2022/04/24 10:38:31;;;;;;;3.58;3.00;;;16.70;99.90;;;;;;5013826;28;20074;-57
2022/04/24 10:41:05;;;;;;;4.85;3.25;;;16.90;99.90;;;;;;5002171;28;20060;-58
2022/04/24 10:43:42;;;;;;;4.18;2.90;;;17.10;99.90;;;;;;5013396;28;20049;-59
2022/04/24 10:46:19;;;;;;;4.13;3.70;;;17.40;99.90;;;;;;5007305;28;20136;-58
2022/04/24 10:48:46;;;;;;;4.43;3.95;;;17.40;99.90;;;;;;5008219;28;20050;-58
2022/04/24 10:51:14;;;;;;;6.90;3.78;;;17.10;99.90;;;;;;5012220;28;20249;-58
2022/04/24 10:53:57;;;;;;;4.68;3.35;;;17.10;99.90;;;;;;5011493;28;20533;-59
2022/04/24 10:56:24;;;;;;;3.15;2.58;;;17.30;99.90;;;;;;5009778;28;20049;-58
2022/04/24 10:58:51;;;;;;;4.05;3.45;;;17.60;99.90;;;;;;5019896;28;20080;-58
2022/04/24 11:01:18;;;;;;;5.28;4.13;;;17.70;99.00;;;;;;5021148;28;20080;-59
2022/04/24 11:03:46;;;;;;;4.78;4.03;;;17.80;98.60;;;;;;5030403;28;20492;-58
2022/04/24 11:06:23;;;;;;;4.38;3.65;;;17.70;97.50;;;;;;5014417;28;20464;-58
2022/04/24 11:08:50;;;;;;;3.90;3.50;;;17.80;97.60;;;;;;5019829;28;20046;-58
2022/04/24 11:11:18;;;;;;;4.50;3.47;;;18.00;97.50;;;;;;5011680;28;20120;-59
2022/04/24 11:13:44;;;;;;;5.43;4.68;;;18.10;96.30;;;;;;5008576;28;20387;-59
2022/04/24 11:16:12;;;;;;;6.03;4.00;;;18.20;95.50;;;;;;5012683;28;20455;-59
2022/04/24 11:18:45;;;;;;;5.43;4.00;;;18.20;95.80;;;;;;5018143;28;20136;-59
2022/04/24 11:21:16;;;;;;;;;;;18.10;95.40;;;;;;5018849;28;20092;-59
2022/04/24 11:23:43;;;;;;;3.67;3.05;;;18.10;95.80;;;;;;5009426;28;19967;-59
2022/04/24 11:26:12;;;;;;;3.35;2.60;;;18.50;95.30;;;;;;5021578;28;20061;-58
2022/04/24 11:28:46;;;;;;;2.72;2.53;;;18.60;94.50;;;;;;5000144;28;20525;-58
2022/04/24 11:31:21;;;;;;;4.38;3.13;;;18.60;94.50;;;;;;5003071;28;20053;-58
2022/04/24 11:33:53;;;;;;;5.38;4.15;;;18.50;94.10;;;;;;5011095;28;20164;-59
2022/04/24 11:36:20;;;;;;;3.40;3.10;;;18.10;94.10;;;;;;5016335;28;20179;-59
2022/04/24 11:38:49;;;;;;;4.50;3.40;;;18.00;94.10;;;;;;5007734;28;20057;-58
2022/04/24 11:41:16;;;;;;;3.47;2.80;;;18.00;93.90;;;;;;5001020;28;20517;-59
2022/04/24 11:43:43;;;;;;;4.13;3.65;;;18.30;93.90;;;;;;5003491;28;20485;-58
2022/04/24 11:51:51;;;;;;;2.78;2.47;;;19.60;91.30;;;;;;5005947;28;20125;-59
2022/04/24 11:54:18;;;;;;;2.35;2.15;;;20.20;91.20;;;;;;5017070;28;20080;-59
2022/04/24 11:56:50;;;;;;;3.17;2.72;;;20.60;91.00;;;;;;5024161;28;20081;-59
2022/04/24 11:59:18;;;;;;;3.17;2.40;;;21.10;90.40;;;;;;5023298;28;20111;-59
2022/04/24 12:01:45;;;;;;;3.08;2.10;;;21.20;88.60;;;;;;5024887;28;20125;-59
2022/04/24 12:04:19;;;;;;;3.72;2.85;;;21.40;88.60;;;;;;5011194;28;20118;-59
2022/04/24 12:06:46;;;;;;;2.35;1.98;;;21.50;88.40;;;;;;5013692;28;20057;-59
2022/04/24 12:09:14;;;;;;;2.20;2.00;;;22.00;84.90;;;;;;5006741;28;20096;-59
2022/04/24 12:11:43;;;;;;;4.00;2.42;;;22.10;84.20;;;;;;5016869;28;20061;-59
2022/04/24 12:14:11;;;;;;;2.50;2.30;;;22.10;82.90;;;;;;5009781;28;20644;-59
2022/04/24 12:16:39;;;;;;;2.58;2.13;;;22.10;80.90;;;;;;5019536;28;20042;-59
2022/04/24 12:19:08;;;;;;;1.73;1.55;;;22.30;81.50;;;;;;5024840;28;20064;-59
2022/04/24 12:21:44;;;;;;;2.30;1.95;;;22.00;81.40;;;;;;5022286;28;20136;-59
2022/04/24 12:24:11;;;;;;;3.65;2.13;;;21.50;81.20;;;;;;5023075;28;20085;-59
2022/04/24 12:27:09;;;;;;;3.50;2.30;;;21.50;81.50;;;;;;5022231;28;20132;-59
2022/04/24 12:29:57;;;;;;;3.15;2.10;;;21.70;84.30;;;;;;5006750;28;20101;-59
2022/04/24 12:32:27;;;;;;;2.78;2.13;;;21.90;81.60;;;;;;5001168;28;20082;-59
2022/04/24 12:34:54;;;;;;;3.47;2.17;;;21.70;80.00;;;;;;5013197;28;20302;-59
2022/04/24 12:37:31;;;;;;;3.67;2.20;;;21.20;79.40;;;;;;5017535;28;20080;-60
2022/04/24 12:39:58;;;;;;;2.50;1.80;;;20.90;80.30;;;;;;5000379;28;20072;-59
2022/04/24 12:42:25;;;;;;;2.35;1.73;;;21.50;79.20;;;;;;5010420;28;20541;-60
2022/04/24 12:44:52;;;;;;;1.63;1.33;;;22.10;77.00;;;;;;5001059;28;20139;-57
2022/04/24 12:47:20;;;;;;;2.33;2.00;;;22.70;77.90;;;;;;5010127;28;20760;-60
2022/04/24 12:49:47;;;;;;;3.05;2.05;;;22.30;75.60;;;;;;5016348;28;20076;-60
2022/04/24 12:52:14;;;;;;;2.22;2.03;;;22.10;76.60;;;;;;5008363;28;20128;-60
2022/04/24 12:54:41;;;;;;;3.00;2.22;;;22.10;79.80;;;;;;5008347;28;20129;-60
2022/04/24 12:57:08;;;;;;;4.90;2.40;;;21.60;77.90;;;;;;5017175;28;20108;-60
2022/04/24 12:59:35;;;;;;;3.30;2.28;;;21.10;78.10;;;;;;5004322;28;20077;-60
2022/04/24 13:02:04;;;;;;;2.60;1.80;;;21.70;79.30;;;;;;5007144;28;20116;-60